Aviation Digital Data Service (ADDS)

Output produced by METARs form (1255 UTC 19 December 2014)
found at http://www.aviationweather.gov/adds/metars/
 
KMDT 191156Z 30010KT 10SM OVC029 01/M04 A3008 RMK AO2 SLP190 T00111044 10011 20011 51008
KMDT 191152Z 30011KT 10SM OVC029 01/M04 A3008 RMK AO2
KMDT 191056Z 30008KT 10SM OVC030 01/M04 A3006 RMK AO2 SLP184 T00111044
KMDT 190956Z 30014KT 10SM OVC032 01/M04 A3006 RMK AO2 SLP182 T00111044
KMDT 190929Z 30013KT 10SM OVC031 01/M04 A3006 RMK AO2 T00111044
KMDT 190856Z 28011KT 10SM OVC029 01/M04 A3006 RMK AO2 SLP184 T00111039 50002
KMDT 190822Z 29014KT 10SM OVC030 01/M04 A3007 RMK AO2 T00111039
KMDT 190756Z 28011KT 10SM OVC029 01/M04 A3006 RMK AO2 SLP185 T00111039
KMDT 190656Z 30010KT 10SM OVC027 01/M04 A3006 RMK AO2 SLP183 T00111039
KMDT 190556Z 30010KT 10SM OVC027 01/M04 A3006 RMK AO2 SLP182 T00111039 10017 20011 58006
KMDT 190456Z 30009KT 10SM OVC028 01/M04 A3007 RMK AO2 SLP185 T00111044 400280011
KMDT 190356Z 30009KT 10SM OVC029 01/M05 A3007 RMK AO2 SLP187 T00111050
KMDT 190256Z 30009KT 10SM OVC029 01/M04 A3007 RMK AO2 SLP188 T00111039 50004
KMDT 190156Z 30010KT 10SM OVC029 02/M04 A3008 RMK AO2 SLP189 T00171044
KMDT 190056Z 31008KT 10SM OVC030 02/M04 A3008 RMK AO2 SLP189 T00171044
KMDT 182356Z 33009KT 10SM OVC031 02/M05 A3006 RMK AO2 SLP185 T00171050 10022 20017 58001
KMDT 182256Z 30012KT 10SM OVC031 02/M05 A3007 RMK AO2 SLP186 T00171050
KMDT 182156Z 33012KT 10SM OVC031 02/M05 A3007 RMK AO2 SLP185 T00171050
KMDT 182056Z 31011KT 10SM OVC031 02/M05 A3007 RMK AO2 SLP185 BINOVC T00171050 55006
KMDT 181956Z 30018G24KT 10SM OVC033 02/M05 A3007 RMK AO2 SLP185 T00171050
KMDT 181856Z 30015G21KT 10SM OVC035 02/M05 A3008 RMK AO2 SLP190 T00171050
KMDT 181756Z 30013KT 10SM OVC035 02/M05 A3008 RMK AO2 SLP190 T00221050 10028 20011 58012
KMDT 181656Z 29013KT 10SM OVC039 02/M04 A3009 RMK AO2 SLP193 T00221044
KMDT 181556Z 29013KT 10SM BKN033 02/M04 A3011 RMK AO2 SLP200 T00171044
KMDT 181456Z 30013KT 10SM BKN039 OVC045 01/M06 A3012 RMK AO2 SLP202 T00111056 51013
KMDT 181356Z 30014KT 10SM OVC037 01/M06 A3011 RMK AO2 SLP198 T00111061
KMDT 181256Z 31011KT 10SM OVC037 01/M07 A3010 RMK AO2 SLP196 T00111067
KMDT 181156Z 30016KT 10SM OVC041 01/M07 A3008 RMK AO2 SLP189 T00111072 10022 20011 52011
KMDT 181056Z 31011G18KT 10SM BKN045 01/M08 A3007 RMK AO2 SLP186 T00111078
KMDT 180956Z 32014G22KT 10SM SCT045 01/M09 A3006 RMK AO2 PK WND 32031/0909 SLP181 T00111089
KMDT 180856Z 31022G27KT 10SM BKN045 02/M09 A3005 RMK AO2 PK WND 32029/0837 SLP178 T00171089 50006
KMDT 180756Z 31016KT 10SM BKN045 02/M07 A3005 RMK AO2 SLP179 T00171067
KMDT 180656Z 31015G21KT 10SM BKN045 02/M07 A3005 RMK AO2 SLP178 T00171067
KMDT 180556Z 31016KT 10SM OVC043 02/M06 A3003 RMK AO2 PK WND 30026/0500 SLP171 T00221056 10044 20022 53002
KMDT 180456Z 32021G25KT 10SM BKN045 03/M06 A3002 RMK AO2 PK WND 31027/0407 SLP168 T00281061 401000022
KMDT 180356Z 30019G25KT 10SM OVC045 03/M06 A3002 RMK AO2 PK WND 32027/0343 SLP170 T00281056
KMDT 180256Z 32012KT 10SM OVC043 03/M06 A3002 RMK AO2 SLP169 T00281056 50006
KMDT 180156Z 29016KT 10SM OVC045 03/M05 A3002 RMK AO2 SLP170 T00331050
KMDT 180056Z 31020G27KT 10SM BKN045 03/M06 A3001 RMK AO2 PK WND 31027/0053 SLP165 T00331056